createdAt,value
2018-02-11T00:00:07.773Z,27.5
2018-02-11T00:02:05.556Z,27.5
2018-02-11T00:04:05.318Z,27.5
2018-02-11T00:06:05.609Z,27.5
2018-02-11T00:08:05.391Z,27.5
2018-02-11T00:10:08.284Z,27.5
2018-02-11T00:12:05.699Z,27.3
2018-02-11T00:14:05.889Z,27.3
2018-02-11T00:16:05.751Z,27.3
2018-02-11T00:18:08.214Z,27.4
2018-02-11T00:20:06.223Z,27.4
2018-02-11T00:22:05.961Z,27.4
2018-02-11T00:24:08.275Z,27.3
2018-02-11T00:26:06.151Z,27.3
2018-02-11T00:28:08.731Z,27.4
2018-02-11T00:30:08.076Z,27.4
2018-02-11T00:32:08.416Z,27.3
2018-02-11T00:34:05.698Z,27.3
2018-02-11T00:36:05.741Z,27.4
2018-02-11T00:38:05.456Z,27.3
2018-02-11T00:40:07.846Z,27.3
2018-02-11T00:42:05.590Z,27.3
2018-02-11T00:44:07.900Z,27.4
2018-02-11T00:46:05.635Z,27.3
2018-02-11T00:48:05.986Z,27.3
2018-02-11T00:50:05.734Z,27.3
2018-02-11T00:52:05.981Z,27.4
2018-02-11T00:54:05.819Z,27.4
2018-02-11T00:56:05.569Z,27.4
2018-02-11T00:58:05.404Z,27.4
2018-02-11T01:00:05.750Z,27.4
2018-02-11T01:02:05.565Z,27.4
2018-02-11T01:04:05.487Z,27.4
2018-02-11T01:06:05.764Z,27.4
2018-02-11T01:08:05.529Z,27.4
2018-02-11T01:10:07.839Z,27.2
2018-02-11T01:12:05.606Z,27.4
2018-02-11T01:14:05.396Z,27.4
2018-02-11T01:16:07.696Z,27.4
2018-02-11T01:18:05.633Z,27.4
2018-02-11T01:20:05.399Z,27.4
2018-02-11T01:22:05.155Z,27.5
2018-02-11T01:24:06.230Z,27.4
2018-02-11T01:26:06.008Z,27.4
2018-02-11T01:28:10.872Z,27.2
2018-02-11T01:30:08.244Z,27.4
2018-02-11T01:32:05.526Z,27.2
2018-02-11T01:34:08.378Z,27.4
2018-02-11T01:36:05.119Z,27.4
2018-02-11T01:38:05.948Z,27.4
2018-02-11T01:40:05.750Z,27.4
2018-02-11T01:42:08.024Z,27.2
2018-02-11T01:44:05.776Z,27.3
2018-02-11T01:46:05.611Z,27.5
2018-02-11T01:48:05.365Z,27.3
2018-02-11T01:50:05.134Z,27.4
2018-02-11T01:52:06.156Z,27.2
2018-02-11T01:54:06.046Z,27.3
2018-02-11T01:56:06.063Z,27.4
2018-02-11T01:58:13.439Z,27.4
2018-02-11T02:00:07.704Z,27.3
2018-02-11T02:02:06.005Z,27.5
2018-02-11T02:04:05.820Z,27.5
2018-02-11T02:06:05.631Z,27.5
2018-02-11T02:08:05.905Z,27.3
2018-02-11T02:10:05.309Z,27.5
2018-02-11T02:12:05.142Z,27.5
2018-02-11T02:14:05.976Z,27.5
2018-02-11T02:16:05.815Z,27.5
2018-02-11T02:18:05.747Z,27.4
2018-02-11T02:20:08.542Z,27.4
2018-02-11T02:22:05.426Z,27.3
2018-02-11T02:24:05.153Z,27.5
2018-02-11T02:26:06.074Z,27.4
2018-02-11T02:28:05.885Z,27.4
2018-02-11T02:30:05.174Z,27.4
2018-02-11T02:32:06.038Z,27.4
2018-02-11T02:34:06.072Z,27.3
2018-02-11T02:36:08.336Z,27.4
2018-02-11T02:38:05.108Z,27.3
2018-02-11T02:40:05.896Z,27
2018-02-11T02:42:05.683Z,27.1
2018-02-11T02:44:05.403Z,27
2018-02-11T02:46:05.990Z,27.1
2018-02-11T02:48:07.822Z,27
2018-02-11T02:50:05.572Z,27
2018-02-11T02:52:05.590Z,27.1
2018-02-11T02:54:05.848Z,27.1
2018-02-11T02:56:05.606Z,27.1
2018-02-11T02:58:10.520Z,27.1
2018-02-11T03:00:05.293Z,27.1
2018-02-11T03:02:07.633Z,27.1
2018-02-11T03:04:05.416Z,27.1
2018-02-11T03:06:07.702Z,27.2
2018-02-11T03:08:05.459Z,27
2018-02-11T03:10:05.445Z,27.4
2018-02-11T03:12:05.202Z,27.5
2018-02-11T03:14:08.583Z,27.5
2018-02-11T03:16:05.351Z,27.4
2018-02-11T03:18:05.292Z,27.4
2018-02-11T03:20:08.584Z,27.4
2018-02-11T03:22:08.189Z,27.4
2018-02-11T03:24:05.945Z,27.3
2018-02-11T03:26:05.836Z,27.4
2018-02-11T03:28:05.755Z,27.4
2018-02-11T03:30:05.580Z,27.4
2018-02-11T03:32:05.348Z,27.4
2018-02-11T03:34:07.862Z,27.3
2018-02-11T03:36:10.618Z,27.3
2018-02-11T03:38:05.362Z,27.2
2018-02-11T03:40:10.275Z,27.2
2018-02-11T03:42:08.580Z,27.2
2018-02-11T03:44:05.283Z,27.2
2018-02-11T03:46:08.576Z,27.5
2018-02-11T03:48:10.375Z,27.3
2018-02-11T03:50:05.154Z,27.3
2018-02-11T03:52:06.037Z,27.3
2018-02-11T03:54:05.757Z,27.5
2018-02-11T03:56:05.462Z,27.4
2018-02-11T03:58:05.301Z,27.4
2018-02-11T04:00:05.061Z,27.1
2018-02-11T04:02:08.475Z,26.9
2018-02-11T04:04:06.048Z,26.9
2018-02-11T04:06:05.797Z,27.1
2018-02-11T04:08:13.119Z,27
2018-02-11T04:10:08.493Z,27
2018-02-11T04:12:05.251Z,27
2018-02-11T04:14:08.537Z,26.9
2018-02-11T04:16:05.434Z,26.9
2018-02-11T04:18:05.606Z,27.1
2018-02-11T04:20:05.369Z,26.9
2018-02-11T04:22:05.156Z,26.9
2018-02-11T04:24:10.943Z,26.9
2018-02-11T04:26:10.828Z,26.9
2018-02-11T04:28:05.407Z,26.9
2018-02-11T04:30:05.149Z,26.9
2018-02-11T04:32:10.921Z,27
2018-02-11T04:34:11.059Z,27
2018-02-11T04:36:08.352Z,27
2018-02-11T04:38:05.164Z,27
2018-02-11T04:40:05.872Z,27
2018-02-11T04:42:05.133Z,27
2018-02-11T04:44:05.904Z,27
2018-02-11T04:46:05.530Z,27
2018-02-11T04:48:05.300Z,27
2018-02-11T04:50:10.162Z,26.9
2018-02-11T04:52:05.752Z,27
2018-02-11T04:54:08.100Z,27
2018-02-11T04:56:05.837Z,26.9
2018-02-11T04:58:08.484Z,26.9
2018-02-11T05:00:05.263Z,26.9
2018-02-11T05:02:08.552Z,26.9
2018-02-11T05:04:08.220Z,26.9
2018-02-11T05:06:05.399Z,26.9
2018-02-11T05:08:05.152Z,26.9
2018-02-11T05:10:05.902Z,27
2018-02-11T05:12:05.544Z,27
2018-02-11T05:14:07.795Z,27
2018-02-11T05:16:05.521Z,27
2018-02-11T05:18:05.469Z,27
2018-02-11T05:20:10.321Z,27.1
2018-02-11T05:22:05.415Z,27.2
2018-02-11T05:24:05.122Z,27.3
2018-02-11T05:26:05.905Z,27.3
2018-02-11T05:28:05.548Z,27.4
2018-02-11T05:30:05.455Z,27.3
2018-02-11T05:32:05.285Z,27.4
2018-02-11T05:34:05.910Z,27.1
2018-02-11T05:36:05.722Z,27.4
2018-02-11T05:38:06.015Z,27.4
2018-02-11T05:40:06.105Z,27.4
2018-02-11T05:42:05.857Z,27.4
2018-02-11T05:44:08.171Z,27.3
2018-02-11T05:46:05.919Z,27.3
2018-02-11T05:48:07.759Z,27.3
2018-02-11T05:50:05.566Z,27.4
2018-02-11T05:52:05.409Z,27.2
2018-02-11T05:54:12.878Z,27.1
2018-02-11T05:56:05.648Z,27.1
2018-02-11T05:58:05.433Z,27.2
2018-02-11T06:00:07.727Z,27.5
2018-02-11T06:02:05.527Z,26.9
2018-02-11T06:04:05.283Z,27.1
2018-02-11T06:06:10.150Z,26.9
2018-02-11T06:08:13.582Z,26.9
2018-02-11T06:10:05.420Z,27
2018-02-11T06:12:05.165Z,27.1
2018-02-11T06:14:08.458Z,27.1
2018-02-11T06:16:05.191Z,27
2018-02-11T06:18:05.242Z,27.1
2018-02-11T06:20:05.502Z,27
2018-02-11T06:22:05.802Z,27.1
2018-02-11T06:24:05.688Z,27
2018-02-11T06:26:07.981Z,27.1
2018-02-11T06:28:15.987Z,27.1
2018-02-11T06:30:05.868Z,27.2
2018-02-11T06:32:05.616Z,27.1
2018-02-11T06:34:05.392Z,27.1
2018-02-11T06:36:05.744Z,27.1
2018-02-11T06:38:08.086Z,27
2018-02-11T06:40:06.149Z,27.1
2018-02-11T06:42:05.433Z,27
2018-02-11T06:44:05.731Z,27
2018-02-11T06:46:05.817Z,27.1
2018-02-11T06:48:10.729Z,27.1
2018-02-11T06:50:05.087Z,27.2
2018-02-11T06:52:05.922Z,27
2018-02-11T06:54:05.720Z,27.1
2018-02-11T06:56:05.529Z,27.2
2018-02-11T06:58:05.355Z,27.1
2018-02-11T07:00:05.269Z,27.2
2018-02-11T07:02:05.124Z,27.1
2018-02-11T07:04:05.910Z,27.4
2018-02-11T07:06:05.683Z,27.3
2018-02-11T07:08:05.478Z,27.3
2018-02-11T07:10:05.626Z,27.1
2018-02-11T07:12:07.939Z,27.1
2018-02-11T07:14:08.469Z,27.1
2018-02-11T07:16:05.548Z,27.1
2018-02-11T07:18:06.271Z,27.1
2018-02-11T07:20:05.746Z,27.1
2018-02-11T07:22:05.501Z,27.1
2018-02-11T07:24:05.335Z,27.1
2018-02-11T07:26:07.709Z,27.1
2018-02-11T07:28:15.713Z,27.1
2018-02-11T07:30:06.015Z,27.1
2018-02-11T07:32:05.447Z,27.1
2018-02-11T07:34:05.255Z,27.2
2018-02-11T07:36:08.535Z,27.1
2018-02-11T07:38:06.287Z,27.2
2018-02-11T07:40:10.104Z,27.2
2018-02-11T07:42:06.043Z,27.1
2018-02-11T07:44:08.326Z,27.1
2018-02-11T07:46:05.289Z,27.3
2018-02-11T07:48:06.045Z,27.5
2018-02-11T07:50:07.908Z,27.5
2018-02-11T07:52:05.663Z,27.6
2018-02-11T07:54:05.450Z,27.5
2018-02-11T07:56:05.274Z,27.5
2018-02-11T07:58:07.613Z,27.5
2018-02-11T08:00:07.942Z,27.5
2018-02-11T08:02:05.342Z,27.6
2018-02-11T08:04:05.103Z,27.3
2018-02-11T08:06:08.422Z,27.5
2018-02-11T08:08:08.019Z,27.5
2018-02-11T08:10:10.823Z,27.4
2018-02-11T08:12:05.566Z,27.4
2018-02-11T08:14:08.254Z,27.5
2018-02-11T08:16:13.559Z,27.6
2018-02-11T08:18:08.056Z,27.6
2018-02-11T08:20:05.830Z,27.6
2018-02-11T08:22:10.728Z,27.6
2018-02-11T08:24:05.465Z,27.5
2018-02-11T08:26:05.538Z,27.6
2018-02-11T08:28:07.787Z,27.6
2018-02-11T08:30:08.048Z,27.5
2018-02-11T08:32:08.336Z,27.3
2018-02-11T08:34:05.704Z,27.3
2018-02-11T08:36:05.715Z,27.4
2018-02-11T08:38:06.005Z,27.4
2018-02-11T08:40:05.807Z,27.3
2018-02-11T08:42:05.620Z,27.2
2018-02-11T08:44:07.061Z,27.3
2018-02-11T08:46:05.887Z,27.2
2018-02-11T08:48:05.628Z,27.2
2018-02-11T08:50:05.524Z,27.2
2018-02-11T08:52:05.374Z,27.7
2018-02-11T08:54:05.253Z,27.3
2018-02-11T08:56:10.347Z,27.3
2018-02-11T08:58:05.554Z,27.3
2018-02-11T09:00:05.829Z,27.4
2018-02-11T09:02:08.433Z,27.3
2018-02-11T09:04:05.822Z,27.4
2018-02-11T09:06:05.655Z,27.4
2018-02-11T09:08:07.943Z,27.4
2018-02-11T09:10:08.256Z,27.4
2018-02-11T09:12:06.013Z,27.5
2018-02-11T09:14:08.671Z,27.3
2018-02-11T09:16:07.977Z,27.2
2018-02-11T09:18:08.532Z,27.2
2018-02-11T09:20:18.745Z,27.3
2018-02-11T09:22:08.585Z,27.1
2018-02-11T09:24:05.334Z,27.3
2018-02-11T09:26:07.655Z,27.4
2018-02-11T09:28:05.898Z,27.2
2018-02-11T09:30:05.810Z,27.3
2018-02-11T09:32:08.151Z,27.3
2018-02-11T09:34:05.942Z,27.4
2018-02-11T09:36:05.792Z,27.3
2018-02-11T09:38:05.865Z,27.4
2018-02-11T09:40:05.658Z,27.4
2018-02-11T09:42:05.433Z,27.4
2018-02-11T09:44:05.341Z,27.3
2018-02-11T09:46:07.828Z,27.6
2018-02-11T09:48:05.596Z,28
2018-02-11T09:50:06.126Z,27.6
2018-02-11T09:52:07.602Z,27.9
2018-02-11T09:54:07.954Z,27.6
2018-02-11T09:56:05.967Z,27.4
2018-02-11T09:58:07.833Z,27.6
2018-02-11T10:00:05.742Z,27.3
2018-02-11T10:02:11.094Z,27.5
2018-02-11T10:04:05.802Z,27.5
2018-02-11T10:06:05.967Z,27.3
2018-02-11T10:08:05.280Z,27.5
2018-02-11T10:10:07.863Z,27.3
2018-02-11T10:12:05.626Z,27.5
2018-02-11T10:14:05.836Z,27.4
2018-02-11T10:16:05.856Z,27.5
2018-02-11T10:18:06.286Z,27.4
2018-02-11T10:20:06.405Z,27.4
2018-02-11T10:22:05.167Z,27.5
2018-02-11T10:24:08.668Z,27.5
2018-02-11T10:26:05.565Z,27.5
2018-02-11T10:28:05.316Z,27.5
2018-02-11T10:30:05.092Z,27.6
2018-02-11T10:32:05.874Z,27.4
2018-02-11T10:34:05.630Z,27.5
2018-02-11T10:36:07.911Z,27.6
2018-02-11T10:38:10.733Z,27.5
2018-02-11T10:40:05.490Z,27.6
2018-02-11T10:42:06.641Z,27.4
2018-02-11T10:44:05.702Z,27.6
2018-02-11T10:46:05.451Z,27.6
2018-02-11T10:48:05.210Z,27.5
2018-02-11T10:50:06.001Z,27.6
2018-02-11T10:52:08.406Z,27.5
2018-02-11T10:54:05.182Z,27.6
2018-02-11T10:56:05.929Z,27.4
2018-02-11T10:58:08.333Z,27.4
2018-02-11T11:00:05.627Z,27.6
2018-02-11T11:02:05.743Z,27.5
2018-02-11T11:04:06.047Z,27.6
2018-02-11T11:06:05.775Z,27.6
2018-02-11T11:08:05.796Z,27.6
2018-02-11T11:10:05.529Z,27.5
2018-02-11T11:12:05.681Z,27.6
2018-02-11T11:14:05.538Z,27.5
2018-02-11T11:16:05.290Z,27.6
2018-02-11T11:18:05.250Z,27.7
2018-02-11T11:20:06.296Z,27.7
2018-02-11T11:22:05.731Z,27.7
2018-02-11T11:24:05.490Z,27.7
2018-02-11T11:26:05.216Z,27.7
2018-02-11T11:28:05.935Z,27.8
2018-02-11T11:30:08.269Z,27.8
2018-02-11T11:32:08.597Z,27.8
2018-02-11T11:34:05.313Z,27.8
2018-02-11T11:36:05.592Z,27.8
2018-02-11T11:38:05.657Z,27.8
2018-02-11T11:40:05.429Z,27.8
2018-02-11T11:42:05.153Z,27.8
2018-02-11T11:44:05.925Z,27.8
2018-02-11T11:46:08.466Z,27.8
2018-02-11T11:48:07.782Z,27.8
2018-02-11T11:50:05.779Z,27.8
2018-02-11T11:52:05.133Z,27.8
2018-02-11T11:54:05.026Z,27.8
2018-02-11T11:56:05.543Z,27.8
2018-02-11T11:58:05.319Z,27.8
2018-02-11T12:00:05.065Z,27.8
2018-02-11T12:02:05.390Z,27.8
2018-02-11T12:04:05.172Z,27.8
2018-02-11T12:06:08.487Z,28
2018-02-11T12:08:05.537Z,28
2018-02-11T12:10:05.260Z,27.9
2018-02-11T12:12:05.999Z,28.1
2018-02-11T12:14:15.876Z,28
2018-02-11T12:16:05.690Z,28
2018-02-11T12:18:05.711Z,28.1
2018-02-11T12:20:08.827Z,28
2018-02-11T12:22:05.582Z,28.1
2018-02-11T12:24:10.785Z,28
2018-02-11T12:26:08.088Z,28.1
2018-02-11T12:28:05.844Z,28
2018-02-11T12:30:05.646Z,28.2
2018-02-11T12:32:05.569Z,28
2018-02-11T12:34:10.794Z,27.8
2018-02-11T12:36:05.608Z,27.8
2018-02-11T12:38:05.564Z,27.8
2018-02-11T12:40:07.861Z,28
2018-02-11T12:42:05.593Z,28
2018-02-11T12:44:07.920Z,27.8
2018-02-11T12:46:05.661Z,27.8
2018-02-11T12:48:05.399Z,27.8
2018-02-11T12:50:05.225Z,27.8
2018-02-11T12:52:08.140Z,28.2
2018-02-11T12:54:05.921Z,27.8
2018-02-11T12:56:10.724Z,27.8
2018-02-11T12:58:05.466Z,27.8
2018-02-11T13:00:05.287Z,28.4
2018-02-11T13:02:06.068Z,28
2018-02-11T13:04:08.354Z,28
2018-02-11T13:06:08.274Z,28.2
2018-02-11T13:08:06.261Z,28.2
2018-02-11T13:10:08.143Z,28.2
2018-02-11T13:12:05.473Z,28
2018-02-11T13:14:05.238Z,28.4
2018-02-11T13:16:05.967Z,28.4
2018-02-11T13:18:06.008Z,28.5
2018-02-11T13:20:05.959Z,28.5
2018-02-11T13:22:10.923Z,27.9
2018-02-11T13:24:08.210Z,28.2
2018-02-11T13:26:11.179Z,27.8
2018-02-11T13:28:13.805Z,28.4
2018-02-11T13:30:05.519Z,28.5
2018-02-11T13:32:05.367Z,28.1
2018-02-11T13:34:07.660Z,28
2018-02-11T13:36:07.955Z,28.3
2018-02-11T13:38:05.975Z,28.4
2018-02-11T13:40:05.742Z,28.3
2018-02-11T13:42:08.027Z,28.5
2018-02-11T13:44:06.554Z,28.1
2018-02-11T13:46:07.816Z,28.4
2018-02-11T13:48:05.692Z,28.6
2018-02-11T13:50:08.297Z,28.6
2018-02-11T13:52:05.026Z,28.7
2018-02-11T13:54:08.939Z,28.7
2018-02-11T13:56:05.736Z,28.7
2018-02-11T13:58:05.082Z,28.8
2018-02-11T14:00:05.890Z,28.7
2018-02-11T14:02:06.012Z,28.8
2018-02-11T14:04:05.304Z,28.8
2018-02-11T14:06:05.122Z,28.8
2018-02-11T14:08:08.555Z,28.8
2018-02-11T14:10:10.538Z,29
2018-02-11T14:12:05.312Z,28.8
2018-02-11T14:14:05.361Z,28.8
2018-02-11T14:16:10.746Z,28.9
2018-02-11T14:18:07.834Z,28.9
2018-02-11T14:20:05.125Z,28.9
2018-02-11T14:22:08.415Z,29.2
2018-02-11T14:24:07.757Z,29
2018-02-11T14:26:10.120Z,29.3
2018-02-11T14:28:10.141Z,29.2
2018-02-11T14:30:05.084Z,29.3
2018-02-11T14:32:11.054Z,29.3
2018-02-11T14:34:07.049Z,29.4
2018-02-11T14:36:08.503Z,29.5
2018-02-11T14:38:05.266Z,29.5
2018-02-11T14:40:11.775Z,29.3
2018-02-11T14:42:08.266Z,29.4
2018-02-11T14:44:09.535Z,29.5
2018-02-11T14:46:07.090Z,29.5
2018-02-11T14:48:05.602Z,29.5
2018-02-11T14:50:06.652Z,29.5
2018-02-11T14:52:06.146Z,29.5
2018-02-11T14:54:06.083Z,29.5
2018-02-11T14:56:08.949Z,29.5
2018-02-11T14:58:10.918Z,29.5
2018-02-11T15:00:06.902Z,29.5
2018-02-11T15:02:08.100Z,29.5
2018-02-11T15:04:06.050Z,29.5
2018-02-11T15:06:05.974Z,29.5
2018-02-11T15:08:05.095Z,29.5
2018-02-11T15:10:05.807Z,29.4
2018-02-11T15:12:05.640Z,29.5
2018-02-11T15:14:05.400Z,29.5
2018-02-11T15:16:07.085Z,29.5
2018-02-11T15:18:06.044Z,29.3
2018-02-11T15:20:06.259Z,29.4
2018-02-11T15:22:05.993Z,29.4
2018-02-11T15:24:08.127Z,29.6
2018-02-11T15:26:12.893Z,29.5
2018-02-11T15:28:05.712Z,29.4
2018-02-11T15:30:05.733Z,29.5
2018-02-11T15:32:10.434Z,29.4
2018-02-11T15:34:09.564Z,29.6
2018-02-11T15:36:07.061Z,29.6
2018-02-11T15:38:05.985Z,29.5
2018-02-11T15:40:05.543Z,29.5
2018-02-11T15:42:05.597Z,29.6
2018-02-11T15:44:05.587Z,29.5
2018-02-11T15:46:06.133Z,29.4
2018-02-11T15:48:06.234Z,29.4
2018-02-11T15:50:06.037Z,29.4
2018-02-11T15:52:05.270Z,29.4
2018-02-11T15:54:06.275Z,29.4
2018-02-11T15:56:05.276Z,29.4
2018-02-11T15:58:06.064Z,29.6
2018-02-11T16:00:05.846Z,29.4
2018-02-11T16:02:06.289Z,29.4
2018-02-11T16:04:05.376Z,29.4
2018-02-11T16:06:07.200Z,29.4
2018-02-11T16:08:06.132Z,29.4
2018-02-11T16:10:11.009Z,29.4
2018-02-11T16:12:05.258Z,29.4
2018-02-11T16:14:07.259Z,29.4
2018-02-11T16:16:07.376Z,29.4
2018-02-11T16:18:05.836Z,29.4
2018-02-11T16:20:06.804Z,29.4
2018-02-11T16:22:05.778Z,29.4
2018-02-11T16:24:05.669Z,29.4
2018-02-11T16:26:05.636Z,29.4
2018-02-11T16:28:05.969Z,29.4
2018-02-11T16:30:05.767Z,29.5
2018-02-11T16:32:06.259Z,29.4
2018-02-11T16:34:06.084Z,29.5
2018-02-11T16:36:06.489Z,29.6
2018-02-11T16:38:13.347Z,28.9
2018-02-11T16:40:05.446Z,29.5
2018-02-11T16:42:05.613Z,29.5
2018-02-11T16:44:06.683Z,29.4
2018-02-11T16:46:05.750Z,29.4
2018-02-11T16:48:06.902Z,29.4
2018-02-11T16:50:06.043Z,29.5
2018-02-11T16:52:13.101Z,29.4
2018-02-11T16:54:08.063Z,29.2
2018-02-11T16:56:08.196Z,28.9
2018-02-11T16:58:07.004Z,28.7
2018-02-11T17:00:07.901Z,28.9
2018-02-11T17:02:05.166Z,28.7
2018-02-11T17:04:05.159Z,28.9
2018-02-11T17:06:06.185Z,28.8
2018-02-11T17:08:05.272Z,28.9
2018-02-11T17:10:06.401Z,29.2
2018-02-11T17:12:05.363Z,28.8
2018-02-11T17:14:10.170Z,29.1
2018-02-11T17:16:05.916Z,29.2
2018-02-11T17:18:06.263Z,29.2
2018-02-11T17:20:05.094Z,29.2
2018-02-11T17:22:08.508Z,29.2
2018-02-11T17:24:07.726Z,29.1
2018-02-11T17:26:05.486Z,28.9
2018-02-11T17:28:10.438Z,29.1
2018-02-11T17:30:05.263Z,29.2
2018-02-11T17:32:06.120Z,29.2
2018-02-11T17:34:05.207Z,29.2
2018-02-11T17:36:08.669Z,29.2
2018-02-11T17:38:05.590Z,29.2
2018-02-11T17:40:06.299Z,29.3
2018-02-11T17:42:07.572Z,29.1
2018-02-11T17:44:07.219Z,29.1
2018-02-11T17:46:05.680Z,29.2
2018-02-11T17:48:05.673Z,29.1
2018-02-11T17:50:05.998Z,29.2
2018-02-11T17:52:12.820Z,29.1
2018-02-11T17:54:06.733Z,29.1
2018-02-11T17:56:08.274Z,29.1
2018-02-11T17:58:06.300Z,29.1
2018-02-11T18:00:05.080Z,29.2
2018-02-11T18:02:11.115Z,29.1
2018-02-11T18:04:06.173Z,29.1
2018-02-11T18:06:08.661Z,29.2
2018-02-11T18:08:05.639Z,28.7
2018-02-11T18:10:15.493Z,28.5
2018-02-11T18:12:05.501Z,28.6
2018-02-11T18:14:09.104Z,28.7
2018-02-11T18:16:05.826Z,28.6
2018-02-11T18:18:05.633Z,28.6
2018-02-11T18:20:05.683Z,28.6
2018-02-11T18:22:07.268Z,28.6
2018-02-11T18:24:05.748Z,28.7
2018-02-11T18:26:06.708Z,28.6
2018-02-11T18:28:06.378Z,28.6
2018-02-11T18:30:12.125Z,28.7
2018-02-11T18:32:06.800Z,28.7
2018-02-11T18:34:07.152Z,28.7
2018-02-11T18:36:05.357Z,28.7
2018-02-11T18:38:05.451Z,28.7
2018-02-11T18:40:15.568Z,28.6
2018-02-11T18:42:10.857Z,28.7
2018-02-11T18:44:06.582Z,28.7
2018-02-11T18:46:05.868Z,28.7
2018-02-11T18:48:08.495Z,28.6
2018-02-11T18:50:08.167Z,28.7
2018-02-11T18:52:11.950Z,28.7
2018-02-11T18:54:08.631Z,28.6
2018-02-11T18:56:05.966Z,28.7
2018-02-11T18:58:08.472Z,28.7
2018-02-11T19:00:05.289Z,28.7
2018-02-11T19:02:05.070Z,28.8
2018-02-11T19:04:05.524Z,28.8
2018-02-11T19:06:05.969Z,28.8
2018-02-11T19:08:08.337Z,28.8
2018-02-11T19:10:05.114Z,28.8
2018-02-11T19:12:06.076Z,28.7
2018-02-11T19:14:05.895Z,28.8
2018-02-11T19:16:08.255Z,28.8
2018-02-11T19:18:09.799Z,28.8
2018-02-11T19:20:05.571Z,28.9
2018-02-11T19:22:08.280Z,28.9
2018-02-11T19:24:08.101Z,28.8
2018-02-11T19:26:06.894Z,28.8
2018-02-11T19:28:05.685Z,29
2018-02-11T19:30:05.717Z,28.9
2018-02-11T19:32:05.467Z,28.9
2018-02-11T19:34:05.331Z,29
2018-02-11T19:36:07.229Z,29
2018-02-11T19:38:10.728Z,29
2018-02-11T19:40:10.582Z,28.9
2018-02-11T19:42:08.103Z,28.9
2018-02-11T19:44:07.953Z,29.5
2018-02-11T19:46:05.613Z,29.7
2018-02-11T19:48:05.418Z,29.4
2018-02-11T19:50:05.681Z,29.7
2018-02-11T19:52:08.179Z,29.2
2018-02-11T19:54:05.761Z,29.5
2018-02-11T19:56:05.488Z,29.7
2018-02-11T19:58:13.829Z,29.6
2018-02-11T20:00:06.830Z,29.5
2018-02-11T20:02:05.480Z,29.7
2018-02-11T20:04:05.757Z,29.7
2018-02-11T20:06:08.017Z,29.8
2018-02-11T20:08:05.752Z,29.8
2018-02-11T20:10:05.767Z,29.7
2018-02-11T20:12:05.550Z,29.7
2018-02-11T20:14:05.481Z,29.7
2018-02-11T20:16:05.242Z,29.6
2018-02-11T20:18:06.013Z,29.6
2018-02-11T20:20:05.828Z,29.7
2018-02-11T20:22:08.369Z,29.7
2018-02-11T20:24:05.560Z,29.7
2018-02-11T20:26:05.421Z,29.7
2018-02-11T20:28:05.167Z,29.7
2018-02-11T20:30:05.143Z,29.7
2018-02-11T20:32:05.892Z,29.4
2018-02-11T20:34:05.698Z,29.2
2018-02-11T20:36:05.456Z,29.8
2018-02-11T20:38:05.391Z,29.8
2018-02-11T20:40:06.514Z,29.6
2018-02-11T20:42:05.756Z,29.8
2018-02-11T20:44:05.495Z,29.9
2018-02-11T20:46:05.488Z,29.8
2018-02-11T20:48:05.895Z,29.9
2018-02-11T20:50:06.067Z,29.9
2018-02-11T20:52:08.564Z,29.4
2018-02-11T20:54:08.607Z,29.4
2018-02-11T20:56:05.461Z,29.8
2018-02-11T20:58:07.760Z,29.4
2018-02-11T21:00:05.706Z,29.2
2018-02-11T21:02:05.479Z,29.9
2018-02-11T21:04:07.824Z,29.8
2018-02-11T21:06:08.125Z,29.8
2018-02-11T21:08:05.444Z,29.8
2018-02-11T21:10:08.118Z,29.8
2018-02-11T21:12:05.860Z,29.6
2018-02-11T21:14:08.165Z,29.8
2018-02-11T21:16:05.888Z,29.5
2018-02-11T21:18:05.808Z,29.7
2018-02-11T21:20:05.539Z,29.6
2018-02-11T21:22:05.430Z,29.7
2018-02-11T21:24:05.160Z,29.7
2018-02-11T21:26:05.905Z,29.8
2018-02-11T21:28:05.652Z,29.8
2018-02-11T21:30:10.512Z,29.6
2018-02-11T21:32:05.236Z,29.8
2018-02-11T21:34:06.199Z,29.7
2018-02-11T21:36:11.024Z,29.7
2018-02-11T21:38:06.084Z,29.7
2018-02-11T21:40:05.960Z,29.7
2018-02-11T21:42:05.983Z,29.7
2018-02-11T21:44:05.943Z,29.2
2018-02-11T21:46:08.615Z,29.2
2018-02-11T21:48:07.956Z,29.6
2018-02-11T21:50:05.758Z,29.7
2018-02-11T21:52:05.740Z,29.8
2018-02-11T21:54:05.503Z,29.2
2018-02-11T21:56:07.814Z,29.2
2018-02-11T21:58:05.816Z,29.3
2018-02-11T22:00:05.807Z,29.7
2018-02-11T22:02:08.352Z,29.8
2018-02-11T22:04:07.717Z,29.9
2018-02-11T22:06:08.212Z,29.8
2018-02-11T22:08:08.482Z,29.3
2018-02-11T22:10:05.279Z,29.3
2018-02-11T22:12:06.070Z,29.8
2018-02-11T22:14:05.025Z,29.7
2018-02-11T22:16:05.768Z,29.8
2018-02-11T22:18:05.764Z,29.2
2018-02-11T22:20:05.688Z,29.4
2018-02-11T22:22:08.279Z,29.4
2018-02-11T22:24:08.534Z,29.7
2018-02-11T22:26:07.754Z,29.8
2018-02-11T22:28:06.041Z,29.7
2018-02-11T22:30:05.811Z,29.3
2018-02-11T22:32:06.591Z,29.5
2018-02-11T22:34:05.456Z,29.7
2018-02-11T22:36:05.715Z,29.7
2018-02-11T22:38:06.138Z,29.7
2018-02-11T22:40:05.948Z,29.7
2018-02-11T22:42:05.720Z,29.7
2018-02-11T22:44:05.472Z,29.7
2018-02-11T22:46:10.400Z,29.2
2018-02-11T22:48:05.195Z,29.7
2018-02-11T22:50:08.543Z,29.3
2018-02-11T22:52:05.494Z,29.2
2018-02-11T22:54:05.258Z,29.6
2018-02-11T22:56:08.092Z,29.6
2018-02-11T22:58:13.769Z,29.7
2018-02-11T23:00:05.538Z,29.6
2018-02-11T23:02:05.293Z,29.5
2018-02-11T23:04:06.417Z,29.5
2018-02-11T23:06:05.398Z,29.5
2018-02-11T23:08:05.218Z,29.5
2018-02-11T23:10:06.047Z,29.5
2018-02-11T23:12:05.312Z,29.5
2018-02-11T23:14:06.619Z,29.5
2018-02-11T23:16:05.582Z,29.5
2018-02-11T23:18:08.023Z,29.6
2018-02-11T23:20:08.289Z,29.6
2018-02-11T23:22:06.031Z,29.6
2018-02-11T23:24:05.368Z,29.6
2018-02-11T23:26:05.171Z,29.5
2018-02-11T23:28:05.939Z,29.5
2018-02-11T23:30:13.273Z,29.6
2018-02-11T23:32:06.109Z,29.6
2018-02-11T23:34:05.925Z,29.6
2018-02-11T23:36:10.676Z,29.5
2018-02-11T23:38:05.478Z,29.5
2018-02-11T23:40:05.573Z,29.4
2018-02-11T23:42:05.641Z,29.5
2018-02-11T23:44:05.388Z,29.4
2018-02-11T23:46:05.192Z,29.5
2018-02-11T23:48:05.543Z,29.5
2018-02-11T23:50:05.290Z,29.2
2018-02-11T23:52:05.053Z,29.4
2018-02-11T23:54:05.846Z,29.4
2018-02-11T23:56:05.584Z,29.3
2018-02-11T23:58:08.175Z,29.3
